Time;durP1;ratioP1;P1;durP2;ratioP2;P2;SDS_P1;SDS_P2;PMS_P1;PMS_P2;Temp;Humidity;BMP_temperature;BMP_pressure;BME280_temperature;BME280_humidity;BME280_pressure;Samples;Min_cycle;Max_cycle;Signal;HPM_P1;HPM_P2
2024/04/04 00:00:52;;;;;;;6.90;1.40;;;;;;;;;;5049706;28;20032;-78
2024/04/04 00:03:17;;;;;;;3.08;1.00;;;;;;;;;;5050647;28;20178;-79
2024/04/04 00:05:43;;;;;;;7.18;1.40;;;;;;;;;;5046420;28;20062;-79
2024/04/04 00:08:08;;;;;;;6.60;1.30;;;;;;;;;;5049025;28;20391;-79
2024/04/04 00:10:34;;;;;;;6.63;1.08;;;;;;;;;;5047946;28;20029;-78
2024/04/04 00:13:01;;;;;;;8.77;1.52;;;;;;;;;;5048463;28;20479;-79
2024/04/04 00:15:27;;;;;;;5.75;1.85;;;;;;;;;;5050403;28;20471;-79
2024/04/04 00:17:52;;;;;;;5.20;1.20;;;;;;;;;;5044172;28;20154;-79
2024/04/04 00:20:17;;;;;;;6.45;1.02;;;;;;;;;;5027690;28;20025;-76
2024/04/04 00:22:44;;;;;;;7.80;1.40;;;;;;;;;;5049827;28;20112;-76
2024/04/04 00:25:09;;;;;;;6.13;1.00;;;;;;;;;;5040687;28;20021;-76
2024/04/04 00:27:35;;;;;;;6.50;1.10;;;;;;;;;;5048346;28;20402;-76
2024/04/04 00:30:01;;;;;;;6.88;1.10;;;;;;;;;;5043410;28;20017;-76
2024/04/04 00:32:27;;;;;;;7.05;1.10;;;;;;;;;;5047991;28;20033;-76
2024/04/04 00:34:52;;;;;;;5.70;1.00;;;;;;;;;;5045851;28;20494;-76
2024/04/04 00:37:17;;;;;;;7.35;1.20;;;;;;;;;;5046801;28;20032;-76
2024/04/04 00:39:43;;;;;;;5.35;1.00;;;;;;;;;;5049601;28;20403;-76
2024/04/04 00:42:08;;;;;;;5.05;1.15;;;;;;;;;;5035467;28;20017;-76
2024/04/04 00:44:33;;;;;;;7.55;1.30;;;;;;;;;;5047606;28;20052;-76
2024/04/04 00:46:59;;;;;;;5.15;1.15;;;;;;;;;;5035820;28;20471;-76
2024/04/04 00:49:24;;;;;;;6.80;1.20;;;;;;;;;;5049105;28;20386;-76
2024/04/04 00:51:50;;;;;;;7.43;1.20;;;;;;;;;;5044545;28;20037;-76
2024/04/04 00:54:16;;;;;;;9.85;1.30;;;;;;;;;;5042660;28;20082;-76
2024/04/04 00:56:41;;;;;;;6.00;1.00;;;;;;;;;;5043816;28;20024;-76
2024/04/04 00:59:12;;;;;;;6.43;1.13;;;;;;;;;;5047330;28;20091;-76
2024/04/04 01:01:40;;;;;;;6.03;1.20;;;;;;;;;;5040621;22;1120152;-80
2024/04/04 01:04:06;;;;;;;3.55;0.93;;;;;;;;;;5037264;28;20060;-76
2024/04/04 01:06:32;;;;;;;5.50;1.10;;;;;;;;;;5024866;28;20076;-76
2024/04/04 01:09:00;;;;;;;7.57;1.40;;;;;;;;;;5049683;28;20432;-76
2024/04/04 01:11:27;;;;;;;3.35;1.00;;;;;;;;;;5044080;28;20036;-76
2024/04/04 01:13:52;;;;;;;7.25;1.10;;;;;;;;;;5047133;28;20120;-76
2024/04/04 01:16:19;;;;;;;6.40;1.30;;;;;;;;;;5045107;28;20100;-76
2024/04/04 01:18:48;;;;;;;9.52;1.50;;;;;;;;;;5036577;28;20120;-76
2024/04/04 01:21:13;;;;;;;8.50;1.40;;;;;;;;;;5036904;28;20017;-76
2024/04/04 01:23:40;;;;;;;5.85;1.20;;;;;;;;;;5029668;28;20391;-77
2024/04/04 01:26:06;;;;;;;4.40;0.90;;;;;;;;;;5042132;28;20081;-76
2024/04/04 01:28:32;;;;;;;6.25;1.33;;;;;;;;;;5025191;28;20031;-76
2024/04/04 01:30:57;;;;;;;5.38;1.25;;;;;;;;;;5031888;28;20033;-76
2024/04/04 01:33:23;;;;;;;7.38;1.58;;;;;;;;;;5053894;28;20024;-76
2024/04/04 01:35:48;;;;;;;6.13;1.17;;;;;;;;;;5032136;28;20056;-76
2024/04/04 01:38:13;;;;;;;3.72;1.27;;;;;;;;;;5032238;28;20025;-76
2024/04/04 01:40:39;;;;;;;4.30;0.90;;;;;;;;;;5031443;28;20032;-76
2024/04/04 01:43:04;;;;;;;5.57;1.20;;;;;;;;;;5030107;28;20469;-76
2024/04/04 01:45:29;;;;;;;4.82;0.85;;;;;;;;;;5057348;28;20025;-76
2024/04/04 01:47:55;;;;;;;5.88;0.90;;;;;;;;;;5037182;28;20029;-76
2024/04/04 01:50:20;;;;;;;6.60;1.10;;;;;;;;;;5031010;28;20421;-76
2024/04/04 01:52:46;;;;;;;7.13;1.30;;;;;;;;;;5045941;28;20052;-76
2024/04/04 01:55:11;;;;;;;4.45;1.02;;;;;;;;;;5044932;28;20414;-76
2024/04/04 01:57:36;;;;;;;6.10;1.05;;;;;;;;;;5010535;28;20071;-76
2024/04/04 02:00:02;;;;;;;5.95;1.20;;;;;;;;;;5042465;28;20078;-76
2024/04/04 02:02:27;;;;;;;5.38;1.15;;;;;;;;;;5037942;28;20503;-76
2024/04/04 02:04:52;;;;;;;6.85;1.48;;;;;;;;;;5043536;28;20025;-76
2024/04/04 02:07:18;;;;;;;5.18;1.13;;;;;;;;;;5041078;28;20160;-76
2024/04/04 02:09:43;;;;;;;4.18;1.20;;;;;;;;;;5031437;28;20029;-76
2024/04/04 02:12:09;;;;;;;6.75;1.35;;;;;;;;;;5032055;28;20037;-76
2024/04/04 02:14:35;;;;;;;6.45;1.10;;;;;;;;;;5036466;28;20030;-76
2024/04/04 02:17:01;;;;;;;8.38;1.23;;;;;;;;;;5017328;28;20513;-76
2024/04/04 02:19:26;;;;;;;4.28;1.50;;;;;;;;;;5033887;28;20060;-84
2024/04/04 02:21:52;;;;;;;5.88;1.50;;;;;;;;;;5033108;28;20021;-84
2024/04/04 02:24:17;;;;;;;6.07;1.60;;;;;;;;;;5040591;28;20029;-84
2024/04/04 02:26:42;;;;;;;4.72;1.20;;;;;;;;;;5012623;28;20025;-84
2024/04/04 02:29:08;;;;;;;7.32;1.52;;;;;;;;;;5021854;28;20120;-84
2024/04/04 02:31:33;;;;;;;7.40;1.60;;;;;;;;;;5034558;28;20026;-84
2024/04/04 02:33:59;;;;;;;6.00;1.55;;;;;;;;;;5032252;28;20027;-84
2024/04/04 02:36:28;;;;;;;5.43;1.20;;;;;;;;;;5016555;28;21249;-83
2024/04/04 02:38:54;;;;;;;5.57;1.25;;;;;;;;;;5010608;28;20029;-84
2024/04/04 02:41:19;;;;;;;6.18;1.48;;;;;;;;;;5035734;28;20079;-84
2024/04/04 02:43:44;;;;;;;6.88;1.52;;;;;;;;;;5018688;28;20447;-84
2024/04/04 02:46:10;;;;;;;4.47;1.25;;;;;;;;;;5015253;28;20025;-84
2024/04/04 02:48:36;;;;;;;8.18;1.30;;;;;;;;;;5022262;28;20029;-83
2024/04/04 02:51:03;;;;;;;4.47;1.10;;;;;;;;;;5039808;28;20033;-83
2024/04/04 02:53:28;;;;;;;5.95;1.60;;;;;;;;;;5039506;28;20029;-84
2024/04/04 02:55:58;;;;;;;7.35;1.35;;;;;;;;;;5018554;28;20087;-85
2024/04/04 02:58:25;;;;;;;4.82;1.27;;;;;;;;;;5016797;28;20041;-85
2024/04/04 03:00:51;;;;;;;3.92;1.55;;;;;;;;;;5020196;28;20024;-84
2024/04/04 03:03:17;;;;;;;5.45;1.40;;;;;;;;;;5038807;28;20171;-84
2024/04/04 03:05:42;;;;;;;4.78;1.20;;;;;;;;;;5015074;28;20637;-85
2024/04/04 03:08:08;;;;;;;5.35;1.17;;;;;;;;;;5038436;28;20387;-84
2024/04/04 03:10:35;;;;;;;2.58;1.20;;;;;;;;;;5030768;28;20025;-84
2024/04/04 03:13:01;;;;;;;4.38;1.35;;;;;;;;;;5033165;28;20124;-83
2024/04/04 03:15:26;;;;;;;4.03;1.33;;;;;;;;;;5020601;28;20057;-84
2024/04/04 03:17:52;;;;;;;5.32;1.20;;;;;;;;;;5038354;28;20521;-84
2024/04/04 03:20:17;;;;;;;5.15;1.35;;;;;;;;;;5044502;28;20406;-84
2024/04/04 03:22:42;;;;;;;5.50;1.30;;;;;;;;;;5015130;28;20401;-83
2024/04/04 03:25:08;;;;;;;5.30;1.30;;;;;;;;;;5017848;28;20116;-83
2024/04/04 03:27:33;;;;;;;5.60;1.38;;;;;;;;;;5035565;28;20116;-84
2024/04/04 03:29:58;;;;;;;3.60;1.35;;;;;;;;;;5029682;28;20029;-84
2024/04/04 03:32:24;;;;;;;6.22;2.00;;;;;;;;;;5018188;28;20038;-84
2024/04/04 03:34:49;;;;;;;2.63;1.10;;;;;;;;;;5028564;28;20034;-84
2024/04/04 03:37:14;;;;;;;5.18;1.25;;;;;;;;;;5001576;28;20026;-84
2024/04/04 03:39:40;;;;;;;5.10;1.40;;;;;;;;;;5025175;28;20033;-85
2024/04/04 03:42:06;;;;;;;4.70;1.52;;;;;;;;;;5035461;28;20055;-83
2024/04/04 03:44:32;;;;;;;6.03;1.48;;;;;;;;;;5014706;28;20025;-85
2024/04/04 03:46:58;;;;;;;3.65;1.48;;;;;;;;;;5036192;28;20479;-85
2024/04/04 03:49:23;;;;;;;5.85;1.77;;;;;;;;;;5013237;28;20060;-84
2024/04/04 03:51:50;;;;;;;5.43;1.40;;;;;;;;;;5035998;28;20222;-84
2024/04/04 03:54:16;;;;;;;5.30;1.77;;;;;;;;;;5032900;28;20349;-85
2024/04/04 03:56:41;;;;;;;5.05;1.60;;;;;;;;;;5009845;28;20120;-84
2024/04/04 03:59:06;;;;;;;5.43;1.60;;;;;;;;;;5008967;28;21602;-84
2024/04/04 04:01:32;;;;;;;5.53;2.00;;;;;;;;;;5030929;28;20123;-84
2024/04/04 04:03:58;;;;;;;5.88;2.15;;;;;;;;;;5012695;28;20053;-85
2024/04/04 04:06:23;;;;;;;3.30;1.73;;;;;;;;;;5013566;28;20029;-85
2024/04/04 04:08:48;;;;;;;3.72;1.77;;;;;;;;;;5031674;28;20041;-84
2024/04/04 04:11:14;;;;;;;5.38;2.00;;;;;;;;;;5013318;28;20124;-85
2024/04/04 04:13:39;;;;;;;6.50;2.25;;;;;;;;;;5016469;28;20036;-86
2024/04/04 04:16:05;;;;;;;7.10;2.10;;;;;;;;;;5036888;28;20029;-85
2024/04/04 04:18:31;;;;;;;3.50;1.83;;;;;;;;;;5019721;28;20028;-85
2024/04/04 04:23:41;;;;;;;5.57;2.20;;;;;;;;;;5032618;28;20032;-85
2024/04/04 04:26:06;;;;;;;6.55;2.17;;;;;;;;;;5025191;28;20029;-85
2024/04/04 04:28:32;;;;;;;4.85;2.25;;;;;;;;;;5009699;28;20037;-86
2024/04/04 04:30:58;;;;;;;5.50;2.25;;;;;;;;;;5011293;28;20032;-86
2024/04/04 04:33:23;;;;;;;4.53;1.90;;;;;;;;;;5016340;28;20064;-86
2024/04/04 04:35:48;;;;;;;4.20;2.08;;;;;;;;;;5030460;28;20037;-83
2024/04/04 04:38:14;;;;;;;5.75;2.50;;;;;;;;;;5030791;28;20025;-85
2024/04/04 04:40:41;;;;;;;5.15;2.28;;;;;;;;;;5017172;28;20388;-76
2024/04/04 04:43:07;;;;;;;4.80;1.90;;;;;;;;;;5016487;28;20075;-76
2024/04/04 04:45:33;;;;;;;7.43;2.45;;;;;;;;;;5012640;28;20032;-76
2024/04/04 04:47:58;;;;;;;5.03;2.20;;;;;;;;;;5040954;28;20030;-76
2024/04/04 04:50:23;;;;;;;5.25;2.33;;;;;;;;;;5019547;28;20022;-76
2024/04/04 04:52:49;;;;;;;4.63;2.35;;;;;;;;;;5004355;28;20040;-76
2024/04/04 04:55:14;;;;;;;5.20;2.10;;;;;;;;;;5021790;28;20037;-76
2024/04/04 04:57:40;;;;;;;4.57;2.03;;;;;;;;;;5026074;28;20033;-76
2024/04/04 05:00:11;;;;;;;4.40;2.35;;;;;;;;;;5024758;28;20381;-76
2024/04/04 05:02:38;;;;;;;5.88;2.53;;;;;;;;;;5004840;28;20013;-76
2024/04/04 05:05:13;;;;;;;5.78;2.58;;;;;;;;;;5012886;28;20026;-76
2024/04/04 05:07:39;;;;;;;6.07;2.55;;;;;;;;;;5028781;28;20494;-76
2024/04/04 05:10:04;;;;;;;7.40;2.78;;;;;;;;;;5016778;28;20055;-75
2024/04/04 05:12:30;;;;;;;5.35;2.55;;;;;;;;;;5039265;28;20032;-75
2024/04/04 05:14:55;;;;;;;9.30;2.63;;;;;;;;;;5049769;28;20027;-75
2024/04/04 05:17:20;;;;;;;6.25;2.80;;;;;;;;;;5035799;28;20100;-76
2024/04/04 05:19:46;;;;;;;8.75;2.88;;;;;;;;;;5023029;28;20029;-76
2024/04/04 05:22:11;;;;;;;6.15;2.35;;;;;;;;;;5019015;28;20056;-76
2024/04/04 05:24:36;;;;;;;4.97;2.17;;;;;;;;;;5022602;28;20119;-76
2024/04/04 05:27:02;;;;;;;4.90;2.13;;;;;;;;;;5022323;28;20033;-75
2024/04/04 05:29:27;;;;;;;5.75;2.95;;;;;;;;;;5040540;28;20033;-76
2024/04/04 05:31:53;;;;;;;4.75;2.15;;;;;;;;;;5038484;28;20025;-76
2024/04/04 05:34:18;;;;;;;6.15;2.30;;;;;;;;;;5036442;28;20128;-76
2024/04/04 05:36:43;;;;;;;5.95;1.92;;;;;;;;;;5044628;28;20159;-76
2024/04/04 05:39:09;;;;;;;7.50;2.50;;;;;;;;;;5041132;28;20036;-76
2024/04/04 05:41:34;;;;;;;5.72;2.45;;;;;;;;;;5037289;28;20013;-76
2024/04/04 05:44:00;;;;;;;4.95;1.80;;;;;;;;;;5015004;28;20040;-76
2024/04/04 05:46:25;;;;;;;6.18;1.90;;;;;;;;;;5045908;28;20609;-76
2024/04/04 05:48:51;;;;;;;6.55;2.08;;;;;;;;;;5038181;28;20062;-76
2024/04/04 05:51:17;;;;;;;5.57;2.10;;;;;;;;;;5042179;28;20026;-76
2024/04/04 05:53:42;;;;;;;7.68;2.55;;;;;;;;;;5017871;28;20032;-76
2024/04/04 05:56:07;;;;;;;4.63;2.00;;;;;;;;;;5040785;28;20021;-76
2024/04/04 05:58:33;;;;;;;7.78;2.08;;;;;;;;;;5033846;28;20498;-76
2024/04/04 06:00:58;;;;;;;8.48;2.15;;;;;;;;;;5031779;28;20100;-76
2024/04/04 06:03:24;;;;;;;8.32;2.15;;;;;;;;;;5035186;28;20460;-76
2024/04/04 06:05:50;;;;;;;6.70;2.28;;;;;;;;;;5024695;28;20035;-76
2024/04/04 06:08:15;;;;;;;6.45;2.30;;;;;;;;;;5026039;28;20044;-76
2024/04/04 06:10:41;;;;;;;6.47;1.95;;;;;;;;;;5018139;28;20108;-76
2024/04/04 06:13:06;;;;;;;5.65;1.92;;;;;;;;;;5023081;28;20029;-76
2024/04/04 06:15:31;;;;;;;8.13;2.00;;;;;;;;;;5036728;28;20106;-76
2024/04/04 06:17:57;;;;;;;7.40;2.08;;;;;;;;;;5015245;28;20026;-76
2024/04/04 06:20:23;;;;;;;5.35;1.65;;;;;;;;;;5020037;28;20028;-76
2024/04/04 06:22:49;;;;;;;6.05;1.80;;;;;;;;;;5042345;28;20017;-76
2024/04/04 06:25:15;;;;;;;5.60;1.63;;;;;;;;;;5022645;28;20494;-76
2024/04/04 06:27:40;;;;;;;11.02;2.22;;;;;;;;;;5030457;28;20034;-76
2024/04/04 06:30:06;;;;;;;7.47;2.00;;;;;;;;;;5020655;28;20044;-76
2024/04/04 06:32:31;;;;;;;7.35;2.08;;;;;;;;;;5038990;28;20033;-76
2024/04/04 06:34:57;;;;;;;8.80;1.92;;;;;;;;;;5041753;28;20032;-76
2024/04/04 06:37:22;;;;;;;6.85;1.73;;;;;;;;;;5018764;28;20027;-76
2024/04/04 06:39:47;;;;;;;6.43;1.70;;;;;;;;;;5013094;28;20048;-77
2024/04/04 06:42:13;;;;;;;6.97;1.75;;;;;;;;;;5025988;28;20021;-77
2024/04/04 06:44:39;;;;;;;7.40;2.22;;;;;;;;;;5042849;28;20047;-77
2024/04/04 06:47:04;;;;;;;3.92;1.52;;;;;;;;;;5043908;28;20463;-76
2024/04/04 06:49:30;;;;;;;5.15;1.50;;;;;;;;;;5049869;28;20024;-76
2024/04/04 06:51:55;;;;;;;7.00;1.60;;;;;;;;;;5040041;28;20017;-76
2024/04/04 06:54:21;;;;;;;5.60;1.50;;;;;;;;;;5030245;28;20036;-77
2024/04/04 06:56:47;;;;;;;6.32;1.63;;;;;;;;;;5021167;28;20028;-76
2024/04/04 06:59:12;;;;;;;6.93;1.85;;;;;;;;;;5020216;28;20033;-85
2024/04/04 07:01:37;;;;;;;6.97;1.67;;;;;;;;;;5038814;28;20099;-77
2024/04/04 07:04:03;;;;;;;6.00;2.00;;;;;;;;;;5020698;28;20120;-76
2024/04/04 07:06:29;;;;;;;6.40;1.83;;;;;;;;;;5020886;28;20074;-76
2024/04/04 07:08:55;;;;;;;6.30;1.58;;;;;;;;;;5038928;28;20032;-76
2024/04/04 07:11:20;;;;;;;4.82;1.52;;;;;;;;;;5026145;28;20028;-76
2024/04/04 07:13:46;;;;;;;5.15;1.42;;;;;;;;;;5036729;28;20028;-76
2024/04/04 07:16:12;;;;;;;6.28;1.48;;;;;;;;;;5025747;28;20024;-76
2024/04/04 07:18:37;;;;;;;5.40;1.67;;;;;;;;;;5027885;28;20045;-77
2024/04/04 07:21:05;;;;;;;5.55;1.77;;;;;;;;;;5032649;28;20110;-77
2024/04/04 07:23:31;;;;;;;3.92;1.45;;;;;;;;;;5027471;28;20043;-76
2024/04/04 07:25:57;;;;;;;5.47;1.65;;;;;;;;;;5047467;28;20483;-76
2024/04/04 07:28:23;;;;;;;3.05;1.35;;;;;;;;;;5028485;28;20112;-76
2024/04/04 07:30:49;;;;;;;4.55;1.50;;;;;;;;;;5036814;28;20075;-76
2024/04/04 07:33:14;;;;;;;3.83;1.40;;;;;;;;;;5028310;28;20091;-76
2024/04/04 07:35:41;;;;;;;6.03;1.70;;;;;;;;;;5011838;28;20480;-76
2024/04/04 07:38:08;;;;;;;5.00;1.70;;;;;;;;;;5022750;28;20029;-76
2024/04/04 07:40:38;;;;;;;4.38;1.40;;;;;;;;;;5028678;28;20018;-76
2024/04/04 07:43:03;;;;;;;6.72;1.75;;;;;;;;;;5023731;28;20032;-76
2024/04/04 07:45:29;;;;;;;4.18;1.63;;;;;;;;;;5017694;28;20104;-76
2024/04/04 07:47:54;;;;;;;5.53;1.60;;;;;;;;;;5045652;28;20060;-76
2024/04/04 07:50:20;;;;;;;3.78;1.20;;;;;;;;;;5028419;28;20025;-77
2024/04/04 07:52:51;;;;;;;4.38;1.35;;;;;;;;;;5048916;28;20406;-76
2024/04/04 07:55:17;;;;;;;2.95;1.30;;;;;;;;;;5025217;28;20501;-76
2024/04/04 07:57:43;;;;;;;5.50;1.52;;;;;;;;;;5037279;28;20033;-77
2024/04/04 08:00:09;;;;;;;5.28;1.90;;;;;;;;;;5044175;28;20025;-76
2024/04/04 08:02:35;;;;;;;3.35;1.40;;;;;;;;;;5022915;28;20021;-76
2024/04/04 08:05:02;;;;;;;3.55;1.42;;;;;;;;;;5025209;28;20086;-77
2024/04/04 08:07:35;;;;;;;3.00;1.20;;;;;;;;;;5019856;28;20025;-76
2024/04/04 08:10:01;;;;;;;;;;;;;;;;;;5039314;28;20029;-76
2024/04/04 08:12:27;;;;;;;3.08;1.38;;;;;;;;;;5021592;28;19913;-76
2024/04/04 08:14:52;;;;;;;3.80;1.30;;;;;;;;;;5029147;28;20044;-76
2024/04/04 08:17:18;;;;;;;3.38;1.10;;;;;;;;;;5036631;28;20032;-76
2024/04/04 08:19:43;;;;;;;3.67;1.42;;;;;;;;;;5024884;28;20163;-76
2024/04/04 08:22:11;;;;;;;4.75;1.48;;;;;;;;;;5034637;28;20488;-76
2024/04/04 08:24:36;;;;;;;5.18;1.27;;;;;;;;;;5024575;28;20476;-76
2024/04/04 08:27:02;;;;;;;5.10;1.40;;;;;;;;;;5032530;28;20027;-76
2024/04/04 08:29:27;;;;;;;3.20;1.20;;;;;;;;;;5043723;28;20025;-76
2024/04/04 08:31:52;;;;;;;4.63;1.30;;;;;;;;;;5023925;28;20038;-76
2024/04/04 08:34:18;;;;;;;5.22;1.38;;;;;;;;;;5017692;28;20029;-76
2024/04/04 08:36:43;;;;;;;3.42;1.40;;;;;;;;;;5022115;28;20396;-76
2024/04/04 08:39:08;;;;;;;5.47;1.40;;;;;;;;;;5026730;28;20124;-76
2024/04/04 08:41:34;;;;;;;3.50;1.40;;;;;;;;;;5016662;28;20063;-76
2024/04/04 08:44:00;;;;;;;4.60;1.60;;;;;;;;;;5045821;28;20032;-76
2024/04/04 08:46:26;;;;;;;5.20;1.40;;;;;;;;;;5029984;28;20083;-75
2024/04/04 08:48:54;;;;;;;5.97;1.50;;;;;;;;;;5040419;28;20037;-76
2024/04/04 08:51:20;;;;;;;4.30;1.55;;;;;;;;;;5018441;28;20378;-76
2024/04/04 08:53:45;;;;;;;3.92;1.73;;;;;;;;;;5019969;28;20120;-76
2024/04/04 08:56:10;;;;;;;4.15;1.52;;;;;;;;;;5029976;28;20036;-76
2024/04/04 08:58:36;;;;;;;5.55;1.52;;;;;;;;;;5039320;28;20415;-76
2024/04/04 09:01:02;;;;;;;4.38;1.65;;;;;;;;;;5022923;28;20041;-76
2024/04/04 09:03:28;;;;;;;6.22;1.80;;;;;;;;;;5036884;28;20025;-76
2024/04/04 09:05:53;;;;;;;4.43;1.90;;;;;;;;;;5039916;28;20501;-76
2024/04/04 09:08:19;;;;;;;4.20;1.60;;;;;;;;;;5015310;28;20025;-77
2024/04/04 09:10:45;;;;;;;3.78;1.58;;;;;;;;;;5040755;28;20061;-77
2024/04/04 09:13:12;;;;;;;3.88;1.70;;;;;;;;;;5041591;28;20107;-76
2024/04/04 09:15:38;;;;;;;5.18;1.80;;;;;;;;;;5023590;28;20108;-76
2024/04/04 09:18:05;;;;;;;5.25;2.25;;;;;;;;;;5041790;28;20025;-77
2024/04/04 09:20:32;;;;;;;3.38;1.50;;;;;;;;;;5019329;28;20417;-76
2024/04/04 09:23:00;;;;;;;3.58;1.60;;;;;;;;;;5029978;28;20013;-76
2024/04/04 09:25:26;;;;;;;4.43;1.95;;;;;;;;;;5032991;28;20495;-76
2024/04/04 09:27:52;;;;;;;5.28;2.00;;;;;;;;;;5023958;28;20116;-76
2024/04/04 09:30:18;;;;;;;4.43;1.75;;;;;;;;;;5044115;28;20441;-76
2024/04/04 09:32:46;;;;;;;3.90;1.92;;;;;;;;;;5032390;28;20118;-76
2024/04/04 09:35:12;;;;;;;5.13;1.70;;;;;;;;;;5040214;28;20083;-76
2024/04/04 09:37:38;;;;;;;4.22;1.60;;;;;;;;;;5036550;28;20472;-76
2024/04/04 09:40:05;;;;;;;3.53;1.42;;;;;;;;;;5020374;28;20079;-76
2024/04/04 09:42:30;;;;;;;6.18;1.50;;;;;;;;;;5033645;28;20025;-76
2024/04/04 09:44:55;;;;;;;3.70;1.60;;;;;;;;;;5014738;28;20034;-76
2024/04/04 09:47:22;;;;;;;5.72;2.33;;;;;;;;;;5040920;28;20434;-76
2024/04/04 09:49:50;;;;;;;3.55;1.65;;;;;;;;;;5038026;28;20434;-76
2024/04/04 09:52:16;;;;;;;4.43;1.90;;;;;;;;;;5024516;28;20033;-76
2024/04/04 09:54:42;;;;;;;3.83;1.83;;;;;;;;;;5023736;28;20700;-76
2024/04/04 09:57:08;;;;;;;5.28;1.77;;;;;;;;;;5044585;28;20032;-76
2024/04/04 09:59:34;;;;;;;3.83;1.80;;;;;;;;;;5017993;28;20030;-76
2024/04/04 10:02:03;;;;;;;5.57;2.10;;;;;;;;;;5046305;28;20018;-76
2024/04/04 10:04:36;;;;;;;5.68;1.92;;;;;;;;;;5018519;28;20098;-76
2024/04/04 10:07:02;;;;;;;4.77;1.87;;;;;;;;;;5029536;28;20492;-76
2024/04/04 10:09:36;;;;;;;4.90;2.20;;;;;;;;;;5021553;28;20041;-76
2024/04/04 10:12:13;;;;;;;3.13;1.75;;;;;;;;;;5032283;28;20025;-76
2024/04/04 10:14:49;;;;;;;4.30;1.70;;;;;;;;;;5027145;28;20021;-76
2024/04/04 10:17:15;;;;;;;4.63;1.90;;;;;;;;;;5046585;28;20047;-76
2024/04/04 10:19:45;;;;;;;2.95;1.20;;;;;;;;;;5044558;28;20109;-76
2024/04/04 10:22:17;;;;;;;2.97;1.58;;;;;;;;;;5031810;28;20032;-76
2024/04/04 10:24:42;;;;;;;2.20;1.60;;;;;;;;;;5023563;28;20032;-76
2024/04/04 10:27:11;;;;;;;6.00;1.83;;;;;;;;;;5035223;28;20030;-76
2024/04/04 10:29:38;;;;;;;4.97;2.10;;;;;;;;;;5031385;28;20075;-77
2024/04/04 10:32:08;;;;;;;4.20;1.98;;;;;;;;;;5025101;28;20036;-76
2024/04/04 10:34:34;;;;;;;5.72;2.10;;;;;;;;;;5045819;28;20025;-76
2024/04/04 10:36:59;;;;;;;3.47;1.80;;;;;;;;;;5048122;28;20482;-76
2024/04/04 10:39:25;;;;;;;4.72;2.08;;;;;;;;;;5044854;28;20037;-76
2024/04/04 10:41:53;;;;;;;4.13;2.00;;;;;;;;;;5022406;28;20025;-76
2024/04/04 10:44:20;;;;;;;4.53;1.70;;;;;;;;;;5049212;28;20075;-76
2024/04/04 10:46:48;;;;;;;3.05;1.80;;;;;;;;;;5019048;28;20036;-76
2024/04/04 10:49:16;;;;;;;5.20;1.50;;;;;;;;;;5017012;28;20025;-76
2024/04/04 10:51:49;;;;;;;6.45;1.85;;;;;;;;;;5017873;28;20038;-76
2024/04/04 10:54:15;;;;;;;6.07;1.40;;;;;;;;;;5046422;28;20016;-76
2024/04/04 10:56:41;;;;;;;4.25;1.55;;;;;;;;;;5025165;28;20033;-77
2024/04/04 10:59:06;;;;;;;3.67;1.13;;;;;;;;;;5040881;28;20393;-76
2024/04/04 11:01:32;;;;;;;5.35;1.25;;;;;;;;;;5030642;28;20024;-76
2024/04/04 11:03:58;;;;;;;4.80;1.20;;;;;;;;;;5043811;28;20072;-76
2024/04/04 11:06:28;;;;;;;3.40;0.75;;;;;;;;;;5034576;28;20025;-75
2024/04/04 11:08:54;;;;;;;4.20;1.10;;;;;;;;;;5032534;28;20502;-76
2024/04/04 11:11:22;;;;;;;3.58;0.70;;;;;;;;;;5023366;28;20037;-76
2024/04/04 11:13:51;;;;;;;5.75;0.73;;;;;;;;;;5026377;28;20049;-76
2024/04/04 11:16:18;;;;;;;5.07;0.70;;;;;;;;;;5036746;28;20032;-76
2024/04/04 11:18:44;;;;;;;7.07;1.33;;;;;;;;;;5027046;28;20028;-76
2024/04/04 11:21:10;;;;;;;8.70;1.15;;;;;;;;;;5041392;28;20020;-76
2024/04/04 11:23:35;;;;;;;6.38;1.00;;;;;;;;;;5037713;28;20053;-76
2024/04/04 11:26:01;;;;;;;4.43;0.90;;;;;;;;;;5042214;28;20387;-76
2024/04/04 11:28:27;;;;;;;6.07;1.00;;;;;;;;;;5032395;28;20029;-76
2024/04/04 11:30:53;;;;;;;4.63;0.88;;;;;;;;;;5025124;28;20032;-76
2024/04/04 11:33:18;;;;;;;4.97;0.80;;;;;;;;;;5025729;28;20083;-76
2024/04/04 11:35:45;;;;;;;5.30;1.00;;;;;;;;;;5026969;28;20029;-76
2024/04/04 11:38:10;;;;;;;5.03;1.00;;;;;;;;;;5036607;28;20029;-76
2024/04/04 11:40:35;;;;;;;6.68;1.00;;;;;;;;;;5020234;28;20048;-76
2024/04/04 11:43:01;;;;;;;6.00;1.00;;;;;;;;;;5025063;28;20021;-76
2024/04/04 11:45:26;;;;;;;4.90;1.08;;;;;;;;;;5049172;28;20383;-76
2024/04/04 11:47:51;;;;;;;4.82;1.08;;;;;;;;;;5028909;28;20021;-77
2024/04/04 11:50:17;;;;;;;6.70;1.00;;;;;;;;;;5045034;28;20050;-76
2024/04/04 11:52:44;;;;;;;5.75;1.23;;;;;;;;;;5024582;28;20056;-76
2024/04/04 11:55:09;;;;;;;10.00;1.40;;;;;;;;;;5041619;28;20032;-76
2024/04/04 11:57:35;;;;;;;11.88;1.40;;;;;;;;;;5023622;28;20419;-76
2024/04/04 12:00:00;;;;;;;7.43;1.10;;;;;;;;;;5031507;28;20119;-76
2024/04/04 12:02:26;;;;;;;9.23;1.30;;;;;;;;;;5042026;28;20029;-75
2024/04/04 12:04:51;;;;;;;9.88;1.52;;;;;;;;;;5019069;28;20025;-76
2024/04/04 12:07:16;;;;;;;6.95;1.38;;;;;;;;;;5024065;28;20033;-76
2024/04/04 12:09:42;;;;;;;5.85;1.60;;;;;;;;;;5017846;28;20037;-75
2024/04/04 12:12:07;;;;;;;10.30;2.00;;;;;;;;;;5052084;28;20077;-76
2024/04/04 12:14:33;;;;;;;8.23;1.65;;;;;;;;;;5025896;28;20045;-76
2024/04/04 12:16:58;;;;;;;6.68;1.77;;;;;;;;;;5047047;28;20372;-76
2024/04/04 12:19:27;;;;;;;8.98;1.88;;;;;;;;;;5025928;28;20112;-76
2024/04/04 12:21:53;;;;;;;11.20;2.90;;;;;;;;;;5033130;28;20021;-76
2024/04/04 12:24:22;;;;;;;8.18;2.03;;;;;;;;;;5044155;28;20057;-76
2024/04/04 12:26:48;;;;;;;9.93;1.80;;;;;;;;;;5038602;28;20021;-76
2024/04/04 12:29:19;;;;;;;12.82;2.13;;;;;;;;;;5016282;28;20033;-75
2024/04/04 12:31:44;;;;;;;15.10;1.83;;;;;;;;;;5043051;28;20026;-78
2024/04/04 12:34:10;;;;;;;11.02;1.95;;;;;;;;;;5039943;28;20058;-78
2024/04/04 12:36:36;;;;;;;10.30;1.80;;;;;;;;;;5034883;28;20033;-77
2024/04/04 12:39:03;;;;;;;11.52;2.08;;;;;;;;;;5028217;28;20036;-77
2024/04/04 12:41:29;;;;;;;12.73;2.70;;;;;;;;;;5035057;28;20045;-78
2024/04/04 12:43:54;;;;;;;8.20;2.00;;;;;;;;;;5047416;28;20502;-78
2024/04/04 12:46:19;;;;;;;9.10;1.77;;;;;;;;;;5046456;28;20075;-77
2024/04/04 12:48:46;;;;;;;8.82;2.45;;;;;;;;;;5035301;28;20487;-78
2024/04/04 12:51:12;;;;;;;10.20;2.20;;;;;;;;;;5040557;28;20112;-78
2024/04/04 12:53:37;;;;;;;8.15;1.90;;;;;;;;;;5017488;28;20451;-78
2024/04/04 12:56:05;;;;;;;9.85;2.80;;;;;;;;;;5041421;28;20407;-78
2024/04/04 12:58:31;;;;;;;11.25;2.20;;;;;;;;;;5028820;28;20081;-78
2024/04/04 13:00:59;;;;;;;10.75;2.47;;;;;;;;;;5024818;28;20033;-78
2024/04/04 13:03:27;;;;;;;13.65;2.50;;;;;;;;;;5015984;28;20025;-78
2024/04/04 13:05:56;;;;;;;13.23;2.90;;;;;;;;;;5020505;28;20176;-78
2024/04/04 13:08:22;;;;;;;14.50;4.25;;;;;;;;;;5033546;28;20025;-78
2024/04/04 13:10:47;;;;;;;11.77;2.65;;;;;;;;;;5025296;28;20085;-78
2024/04/04 13:13:13;;;;;;;13.13;2.38;;;;;;;;;;5020873;28;20025;-78
2024/04/04 13:15:39;;;;;;;11.95;3.17;;;;;;;;;;5047310;28;20032;-78
2024/04/04 13:18:05;;;;;;;16.65;2.70;;;;;;;;;;5020110;28;20037;-78
2024/04/04 13:20:30;;;;;;;19.48;3.17;;;;;;;;;;5021064;28;20021;-78
2024/04/04 13:22:55;;;;;;;13.90;3.00;;;;;;;;;;5039025;28;20055;-78
2024/04/04 13:25:21;;;;;;;10.75;3.05;;;;;;;;;;5036126;28;20025;-78
2024/04/04 13:27:46;;;;;;;16.30;2.83;;;;;;;;;;5025276;28;20389;-78
2024/04/04 13:30:12;;;;;;;11.13;2.30;;;;;;;;;;5015403;28;20080;-78
2024/04/04 13:32:37;;;;;;;12.38;2.50;;;;;;;;;;5033252;28;20480;-78
2024/04/04 13:35:03;;;;;;;10.38;2.03;;;;;;;;;;5027414;28;20475;-78
2024/04/04 13:37:29;;;;;;;12.00;2.53;;;;;;;;;;5042009;28;20031;-78
2024/04/04 13:39:54;;;;;;;11.35;2.13;;;;;;;;;;5022546;28;20116;-78
2024/04/04 13:42:21;;;;;;;11.82;2.08;;;;;;;;;;5030091;28;20024;-78
2024/04/04 13:44:49;;;;;;;11.02;2.28;;;;;;;;;;5029506;28;20030;-78
2024/04/04 13:47:14;;;;;;;10.60;2.00;;;;;;;;;;5021130;28;20475;-78
2024/04/04 13:49:40;;;;;;;15.40;2.75;;;;;;;;;;5045593;28;20025;-78
2024/04/04 13:52:05;;;;;;;11.10;2.10;;;;;;;;;;5018051;28;20343;-78
2024/04/04 13:54:31;;;;;;;10.75;2.20;;;;;;;;;;5021882;28;20034;-78
2024/04/04 13:56:56;;;;;;;11.20;1.88;;;;;;;;;;5036582;28;20076;-78
2024/04/04 13:59:22;;;;;;;12.23;1.80;;;;;;;;;;5035882;28;20534;-78
2024/04/04 14:01:48;;;;;;;12.27;2.60;;;;;;;;;;5019594;28;20021;-87
2024/04/04 14:04:13;;;;;;;13.43;1.80;;;;;;;;;;5015483;28;20475;-88
2024/04/04 14:06:44;;;;;;;17.45;2.22;;;;;;;;;;5026811;28;20021;-86
2024/04/04 14:09:10;;;;;;;11.55;1.98;;;;;;;;;;5019853;28;20036;-86
2024/04/04 14:11:36;;;;;;;12.90;2.10;;;;;;;;;;5028454;28;20560;-86
2024/04/04 14:14:05;;;;;;;8.75;1.85;;;;;;;;;;5028333;28;20109;-86
2024/04/04 14:16:30;;;;;;;13.32;2.53;;;;;;;;;;5021487;28;20030;-87
2024/04/04 14:18:56;;;;;;;12.48;2.38;;;;;;;;;;5045723;28;20036;-87
2024/04/04 14:21:22;;;;;;;8.63;1.70;;;;;;;;;;5026443;28;20025;-84
2024/04/04 14:23:48;;;;;;;12.75;2.35;;;;;;;;;;5033158;28;20087;-88
2024/04/04 14:26:16;;;;;;;9.02;1.60;;;;;;;;;;5033586;28;20025;-89
2024/04/04 14:28:42;;;;;;;9.32;1.35;;;;;;;;;;5039037;28;20068;-89
2024/04/04 14:31:08;;;;;;;10.95;1.80;;;;;;;;;;5019766;28;20025;-88
2024/04/04 14:33:34;;;;;;;12.27;1.98;;;;;;;;;;5034459;28;20686;-87
2024/04/04 14:35:59;;;;;;;17.40;2.70;;;;;;;;;;5021139;28;20364;-87